createdAt,value
2017-08-01T00:00:07.277Z,85.00
2017-08-01T00:02:35.477Z,84.90
2017-08-01T00:05:02.899Z,84.90
2017-08-01T00:07:31.101Z,84.90
2017-08-01T00:09:58.536Z,84.90
2017-08-01T00:12:26.723Z,84.60
2017-08-01T00:14:54.148Z,84.50
2017-08-01T00:17:21.577Z,84.50
2017-08-01T00:19:49.024Z,83.80
2017-08-01T00:22:16.443Z,83.70
2017-08-01T00:24:44.640Z,83.30
2017-08-01T00:27:12.060Z,83.20
2017-08-01T00:29:40.265Z,82.70
2017-08-01T00:32:07.688Z,83.40
2017-08-01T00:34:35.126Z,82.60
2017-08-01T00:37:02.543Z,81.90
2017-08-01T00:39:29.967Z,82.60
2017-08-01T00:41:58.168Z,82.30
2017-08-01T00:44:25.700Z,82.30
2017-08-01T00:46:53.127Z,82.40
2017-08-01T00:49:20.572Z,82.50
2017-08-01T00:51:48.008Z,83.40
2017-08-01T00:54:15.519Z,83.90
2017-08-01T00:56:43.719Z,81.50
2017-08-01T00:59:11.136Z,81.40
2017-08-01T01:01:38.598Z,81.10
2017-08-01T01:04:06.029Z,81.00
2017-08-01T01:06:33.459Z,80.90
2017-08-01T01:09:00.888Z,80.90
2017-08-01T01:11:29.079Z,80.10
2017-08-01T01:13:56.505Z,80.10
2017-08-01T01:16:23.927Z,80.30
2017-08-01T01:18:51.347Z,80.70
2017-08-01T01:21:18.776Z,81.10
2017-08-01T01:23:46.964Z,85.00
2017-08-01T01:26:21.552Z,86.30
2017-08-01T01:28:48.982Z,86.30
2017-08-01T01:31:16.407Z,85.90
2017-08-01T01:33:43.828Z,87.20
2017-08-01T01:36:11.256Z,86.60
2017-08-01T01:38:38.675Z,87.40
2017-08-01T01:41:06.110Z,86.40
2017-08-01T01:43:33.528Z,86.00
2017-08-01T01:46:00.955Z,86.50
2017-08-01T01:48:28.375Z,87.30
2017-08-01T01:50:55.803Z,87.40
2017-08-01T01:53:23.227Z,87.80
2017-08-01T01:55:50.656Z,88.20
2017-08-01T01:58:18.079Z,87.90
2017-08-01T02:00:45.514Z,88.10
2017-08-01T02:03:12.935Z,88.50
2017-08-01T02:05:40.359Z,89.20
2017-08-01T02:08:07.783Z,90.00
2017-08-01T02:10:35.203Z,89.40
2017-08-01T02:13:02.629Z,89.40
2017-08-01T02:15:30.073Z,89.40
2017-08-01T02:17:57.490Z,89.00
2017-08-01T02:20:24.910Z,88.90
2017-08-01T02:22:52.336Z,89.30
2017-08-01T02:25:19.784Z,88.60
2017-08-01T02:27:47.199Z,89.00
2017-08-01T02:30:14.626Z,89.20
2017-08-01T02:32:42.052Z,88.80
2017-08-01T02:35:10.472Z,89.30
2017-08-01T02:37:37.891Z,89.10
2017-08-01T02:40:05.316Z,89.40
2017-08-01T02:42:32.741Z,89.60
2017-08-01T02:45:00.159Z,89.50
2017-08-01T02:47:27.583Z,90.10
2017-08-01T02:49:55.005Z,90.30
2017-08-01T02:52:22.436Z,90.10
2017-08-01T02:54:49.856Z,90.20
2017-08-01T02:57:17.281Z,90.40
2017-08-01T02:59:44.703Z,90.60
2017-08-01T03:02:12.148Z,90.60
2017-08-01T03:04:39.564Z,90.40
2017-08-01T03:07:07.756Z,90.40
2017-08-01T03:09:35.180Z,90.30
2017-08-01T03:12:03.384Z,90.80
2017-08-01T03:14:30.800Z,90.50
2017-08-01T03:16:58.235Z,90.20
2017-08-01T03:19:25.656Z,90.30
2017-08-01T03:21:53.075Z,90.20
2017-08-01T03:24:20.506Z,90.50
2017-08-01T03:26:47.923Z,90.40
2017-08-01T03:29:15.351Z,90.00
2017-08-01T03:31:43.535Z,90.40
2017-08-01T03:34:10.965Z,90.40
2017-08-01T03:36:38.383Z,90.60
2017-08-01T03:39:05.810Z,90.70
2017-08-01T03:41:33.996Z,90.10
2017-08-01T03:44:01.411Z,90.10
2017-08-01T03:46:28.839Z,90.50
2017-08-01T03:48:56.263Z,90.50
2017-08-01T03:51:23.682Z,90.30
2017-08-01T03:53:51.111Z,90.30
2017-08-01T03:56:18.533Z,90.00
2017-08-01T03:58:45.959Z,90.00
2017-08-01T04:01:18.122Z,90.10
2017-08-01T04:03:45.547Z,89.70
2017-08-01T04:06:13.028Z,90.00
2017-08-01T04:08:40.456Z,90.10
2017-08-01T04:11:07.884Z,90.00
2017-08-01T04:13:35.308Z,90.00
2017-08-01T04:16:02.759Z,89.50
2017-08-01T04:18:30.192Z,89.40
2017-08-01T04:20:57.618Z,89.90
2017-08-01T04:23:25.036Z,90.00
2017-08-01T04:25:52.479Z,90.10
2017-08-01T04:28:19.906Z,90.40
2017-08-01T04:30:47.340Z,90.40
2017-08-01T04:33:14.756Z,90.10
2017-08-01T04:35:42.207Z,90.20
2017-08-01T04:38:09.675Z,90.10
2017-08-01T04:40:37.099Z,90.40
2017-08-01T04:43:04.520Z,90.50
2017-08-01T04:45:31.939Z,90.50
2017-08-01T04:47:59.361Z,90.40
2017-08-01T04:50:26.784Z,89.90
2017-08-01T04:52:54.203Z,89.80
2017-08-01T04:55:21.626Z,89.70
2017-08-01T04:57:49.051Z,89.40
2017-08-01T05:00:16.474Z,90.00
2017-08-01T05:02:43.895Z,90.00
2017-08-01T05:05:11.323Z,89.80
2017-08-01T05:07:38.739Z,89.80
2017-08-01T05:10:06.168Z,89.80
2017-08-01T05:12:33.592Z,90.10
2017-08-01T05:15:01.019Z,90.20
2017-08-01T05:17:29.213Z,90.00
2017-08-01T05:19:57.399Z,90.20
2017-08-01T05:22:24.817Z,90.20
2017-08-01T05:24:52.243Z,90.30
2017-08-01T05:27:19.669Z,90.20
2017-08-01T05:29:47.130Z,90.10
2017-08-01T05:32:14.559Z,90.00
2017-08-01T05:34:42.743Z,89.90
2017-08-01T05:37:10.180Z,89.50
2017-08-01T05:39:37.615Z,89.70
2017-08-01T05:42:05.047Z,89.70
2017-08-01T05:44:32.471Z,89.60
2017-08-01T05:46:59.904Z,89.60
2017-08-01T05:49:27.319Z,88.30
2017-08-01T05:51:54.753Z,88.30
2017-08-01T05:54:22.203Z,89.30
2017-08-01T05:56:53.384Z,89.00
2017-08-01T05:59:20.911Z,88.90
2017-08-01T06:01:48.339Z,89.10
2017-08-01T06:04:16.536Z,88.90
2017-08-01T06:06:43.960Z,88.30
2017-08-01T06:09:11.380Z,88.30
2017-08-01T06:11:38.808Z,87.80
2017-08-01T06:14:06.289Z,87.90
2017-08-01T06:16:33.711Z,87.80
2017-08-01T06:19:01.892Z,86.80
2017-08-01T06:21:29.335Z,86.70
2017-08-01T06:23:56.739Z,86.40
2017-08-01T06:26:24.167Z,86.10
2017-08-01T06:28:51.587Z,86.00
2017-08-01T06:31:19.863Z,85.90
2017-08-01T06:33:47.288Z,86.50
2017-08-01T06:36:14.723Z,87.30
2017-08-01T06:38:42.146Z,87.30
2017-08-01T06:41:09.562Z,86.40
2017-08-01T06:43:37.047Z,86.00
2017-08-01T06:46:04.496Z,85.80
2017-08-01T06:48:31.931Z,84.50
2017-08-01T06:50:59.339Z,85.60
2017-08-01T06:53:26.763Z,85.40
2017-08-01T06:55:54.186Z,84.40
2017-08-01T06:58:21.684Z,83.70
2017-08-01T07:00:49.102Z,81.20
2017-08-01T07:03:16.531Z,82.20
2017-08-01T07:05:43.949Z,81.60
2017-08-01T07:08:11.375Z,81.40
2017-08-01T07:10:38.794Z,78.50
2017-08-01T07:13:06.227Z,81.70
2017-08-01T07:15:33.643Z,82.30
2017-08-01T07:18:01.075Z,80.00
2017-08-01T07:20:28.591Z,78.50
2017-08-01T07:22:56.023Z,78.70
2017-08-01T07:25:23.441Z,78.70
2017-08-01T07:27:50.871Z,77.40
2017-08-01T07:30:19.065Z,78.00
2017-08-01T07:32:46.493Z,78.00
2017-08-01T07:35:13.915Z,78.80
2017-08-01T07:37:41.343Z,77.50
2017-08-01T07:40:08.876Z,76.80
2017-08-01T07:42:37.067Z,72.40
2017-08-01T07:45:04.500Z,72.30
2017-08-01T07:47:31.919Z,75.90
2017-08-01T07:49:59.347Z,76.90
2017-08-01T07:52:26.872Z,73.80
2017-08-01T07:54:54.290Z,76.80
2017-08-01T07:57:21.715Z,77.90
2017-08-01T07:59:49.143Z,76.70
2017-08-01T08:02:17.336Z,79.30
2017-08-01T08:04:44.758Z,79.80
2017-08-01T08:07:12.181Z,80.10
2017-08-01T08:09:39.611Z,80.30
2017-08-01T08:12:07.035Z,80.50
2017-08-01T08:14:34.460Z,79.80
2017-08-01T08:17:01.884Z,80.10
2017-08-01T08:19:29.329Z,78.90
2017-08-01T08:21:56.753Z,81.20
2017-08-01T08:24:24.177Z,81.90
2017-08-01T08:26:51.599Z,82.20
2017-08-01T08:29:19.035Z,76.60
2017-08-01T08:31:46.455Z,79.40
2017-08-01T08:34:13.926Z,82.80
2017-08-01T08:36:41.363Z,82.00
2017-08-01T08:39:08.784Z,82.00
2017-08-01T08:41:36.215Z,81.00
2017-08-01T08:44:03.645Z,79.90
2017-08-01T08:46:31.068Z,79.30
2017-08-01T08:48:58.487Z,79.90
2017-08-01T08:51:25.911Z,79.90
2017-08-01T08:53:53.331Z,80.30
2017-08-01T08:56:20.759Z,80.60
2017-08-01T08:58:48.179Z,79.30
2017-08-01T09:01:15.611Z,73.00
2017-08-01T09:03:43.849Z,71.30
2017-08-01T09:06:11.275Z,77.00
2017-08-01T09:08:38.700Z,75.50
2017-08-01T09:11:06.128Z,75.00
2017-08-01T09:13:34.324Z,74.40
2017-08-01T09:16:01.755Z,74.40
2017-08-01T09:18:29.177Z,75.00
2017-08-01T09:20:56.655Z,73.60
2017-08-01T09:23:24.079Z,73.10
2017-08-01T09:25:51.512Z,75.20
2017-08-01T09:28:18.932Z,72.50
2017-08-01T09:30:46.351Z,73.50
2017-08-01T09:33:13.781Z,70.10
2017-08-01T09:35:41.199Z,68.80
2017-08-01T09:38:09.398Z,69.10
2017-08-01T09:40:36.822Z,69.10
2017-08-01T09:43:04.247Z,68.30
2017-08-01T09:45:31.671Z,71.10
2017-08-01T09:47:59.103Z,68.80
2017-08-01T09:50:26.519Z,70.90
2017-08-01T09:52:54.007Z,73.00
2017-08-01T09:55:21.425Z,70.00
2017-08-01T09:57:48.853Z,72.00
2017-08-01T10:00:16.272Z,73.30
2017-08-01T10:02:43.700Z,66.70
2017-08-01T10:05:11.123Z,73.70
2017-08-01T10:07:38.655Z,71.50
2017-08-01T10:10:06.835Z,71.90
2017-08-01T10:12:34.264Z,72.10
2017-08-01T10:15:01.691Z,64.90
2017-08-01T10:17:29.163Z,64.00
2017-08-01T10:19:56.583Z,59.90
2017-08-01T10:22:24.015Z,63.60
2017-08-01T10:24:51.440Z,67.10
2017-08-01T10:27:18.885Z,59.00
2017-08-01T10:29:46.307Z,59.40
2017-08-01T10:32:13.734Z,61.70
2017-08-01T10:34:41.165Z,62.70
2017-08-01T10:37:08.586Z,63.00
2017-08-01T10:39:36.015Z,66.60
2017-08-01T10:42:04.203Z,63.60
2017-08-01T10:44:31.627Z,63.50
2017-08-01T10:46:59.048Z,64.40
2017-08-01T10:49:26.477Z,65.90
2017-08-01T10:51:53.902Z,66.70
2017-08-01T10:54:21.324Z,65.70
2017-08-01T10:56:48.743Z,66.60
2017-08-01T10:59:16.171Z,67.90
2017-08-01T11:01:43.616Z,68.90
2017-08-01T11:04:11.040Z,68.80
2017-08-01T11:06:38.465Z,71.30
2017-08-01T11:09:05.887Z,72.20
2017-08-01T11:11:33.316Z,72.00
2017-08-01T11:14:00.736Z,72.00
2017-08-01T11:16:28.355Z,73.20
2017-08-01T11:18:55.827Z,74.50
2017-08-01T11:21:23.255Z,74.40
2017-08-01T11:23:50.679Z,74.20
2017-08-01T11:26:18.103Z,73.60
2017-08-01T11:28:45.527Z,73.20
2017-08-01T11:31:12.956Z,73.80
2017-08-01T11:33:40.375Z,72.60
2017-08-01T11:36:07.800Z,72.50
2017-08-01T11:38:35.230Z,71.80
2017-08-01T11:41:02.657Z,70.50
2017-08-01T11:43:30.132Z,69.40
2017-08-01T11:45:57.548Z,67.90
2017-08-01T11:48:25.005Z,68.70
2017-08-01T11:50:52.464Z,67.20
2017-08-01T11:53:19.883Z,66.40
2017-08-01T11:55:47.318Z,66.00
2017-08-01T11:58:14.731Z,62.70
2017-08-01T12:00:42.180Z,62.10
2017-08-01T12:03:09.598Z,65.40
2017-08-01T12:05:37.031Z,64.20
2017-08-01T12:08:04.457Z,61.90
2017-08-01T12:10:32.014Z,65.00
2017-08-01T12:12:59.464Z,62.90
2017-08-01T12:15:26.887Z,63.50
2017-08-01T12:17:54.319Z,63.40
2017-08-01T12:20:21.735Z,62.70
2017-08-01T12:22:49.163Z,65.00
2017-08-01T12:25:16.607Z,63.80
2017-08-01T12:27:44.028Z,62.50
2017-08-01T12:30:12.215Z,62.10
2017-08-01T12:32:39.648Z,62.00
2017-08-01T12:35:07.836Z,60.00
2017-08-01T12:37:35.259Z,60.00
2017-08-01T12:40:02.687Z,65.30
2017-08-01T12:42:30.115Z,62.10
2017-08-01T12:44:57.539Z,63.70
2017-08-01T12:47:24.991Z,62.00
2017-08-01T12:49:52.444Z,61.30
2017-08-01T12:52:19.875Z,61.50
2017-08-01T12:54:47.295Z,62.70
2017-08-01T12:57:14.719Z,62.70
2017-08-01T12:59:42.167Z,63.40
2017-08-01T13:02:09.602Z,64.60
2017-08-01T13:04:37.020Z,64.20
2017-08-01T13:07:04.454Z,66.90
2017-08-01T13:09:31.859Z,67.30
2017-08-01T13:11:59.288Z,66.70
2017-08-01T13:14:26.709Z,67.90
2017-08-01T13:16:54.132Z,68.00
2017-08-01T13:19:21.562Z,68.60
2017-08-01T13:21:48.987Z,71.40
2017-08-01T13:24:17.179Z,70.80
2017-08-01T13:26:45.364Z,71.60
2017-08-01T13:29:12.795Z,71.60
2017-08-01T13:31:40.983Z,71.30
2017-08-01T13:34:08.408Z,71.30
2017-08-01T13:36:37.675Z,72.20
2017-08-01T13:39:13.916Z,75.40
2017-08-01T13:41:41.331Z,75.40
2017-08-01T13:44:08.780Z,75.20
2017-08-01T13:46:36.208Z,73.60
2017-08-01T13:49:03.639Z,72.50
2017-08-01T13:51:31.056Z,73.50
2017-08-01T13:53:58.478Z,73.70
2017-08-01T13:56:26.958Z,72.90
2017-08-01T13:58:54.412Z,74.20
2017-08-01T14:01:21.823Z,70.80
2017-08-01T14:03:49.251Z,73.50
2017-08-01T14:06:16.683Z,74.60
2017-08-01T14:08:44.188Z,72.60
2017-08-01T14:11:11.607Z,72.20
2017-08-01T14:13:39.039Z,71.60
2017-08-01T14:16:06.460Z,73.40
2017-08-01T14:18:34.651Z,72.80
2017-08-01T14:21:02.072Z,72.70
2017-08-01T14:23:29.500Z,73.00
2017-08-01T14:25:56.917Z,73.80
2017-08-01T14:28:24.355Z,74.40
2017-08-01T14:30:51.807Z,75.10
2017-08-01T14:33:19.293Z,75.80
2017-08-01T14:35:46.704Z,75.90
2017-08-01T14:38:14.126Z,76.10
2017-08-01T14:40:41.651Z,77.20
2017-08-01T14:43:09.056Z,76.00
2017-08-01T14:45:36.483Z,75.30
2017-08-01T14:48:03.916Z,75.80
2017-08-01T14:50:32.114Z,75.80
2017-08-01T14:52:59.535Z,75.80
2017-08-01T14:55:26.963Z,76.00
2017-08-01T14:57:54.384Z,76.00
2017-08-01T15:00:21.812Z,76.60
2017-08-01T15:02:49.995Z,76.40
2017-08-01T15:05:17.432Z,76.10
2017-08-01T15:07:44.837Z,76.20
2017-08-01T15:10:12.262Z,76.90
2017-08-01T15:12:40.459Z,77.20
2017-08-01T15:15:07.885Z,77.20
2017-08-01T15:17:35.334Z,78.10
2017-08-01T15:20:02.765Z,78.70
2017-08-01T15:22:30.188Z,79.10
2017-08-01T15:24:57.616Z,78.60
2017-08-01T15:27:25.810Z,79.60
2017-08-01T15:29:53.247Z,79.60
2017-08-01T15:32:20.688Z,81.10
2017-08-01T15:34:48.120Z,82.50
2017-08-01T15:37:15.562Z,82.50
2017-08-01T15:39:43.059Z,82.70
2017-08-01T15:42:10.488Z,82.70
2017-08-01T15:44:37.919Z,80.50
2017-08-01T15:47:05.340Z,80.60
2017-08-01T15:49:33.525Z,78.50
2017-08-01T15:52:00.964Z,78.50
2017-08-01T15:54:28.416Z,79.10
2017-08-01T15:56:55.852Z,80.20
2017-08-01T15:59:23.288Z,80.40
2017-08-01T16:01:50.694Z,79.90
2017-08-01T16:04:18.119Z,80.10
2017-08-01T16:06:45.608Z,80.10
2017-08-01T16:09:13.033Z,80.20
2017-08-01T16:11:40.459Z,80.30
2017-08-01T16:14:07.879Z,79.80
2017-08-01T16:16:36.079Z,77.20
2017-08-01T16:19:03.535Z,77.20
2017-08-01T16:21:30.964Z,77.40
2017-08-01T16:23:59.241Z,80.40
2017-08-01T16:26:26.699Z,80.10
2017-08-01T16:28:54.892Z,81.00
2017-08-01T16:31:22.325Z,80.20
2017-08-01T16:33:49.782Z,81.70
2017-08-01T16:36:17.197Z,80.80
2017-08-01T16:38:44.632Z,80.20
2017-08-01T16:41:12.059Z,80.60
2017-08-01T16:43:40.264Z,80.50
2017-08-01T16:46:07.683Z,79.80
2017-08-01T16:48:35.107Z,79.70
2017-08-01T16:51:02.532Z,80.30
2017-08-01T16:53:29.961Z,80.10
2017-08-01T16:55:58.152Z,79.50
2017-08-01T16:58:25.577Z,79.50
2017-08-01T17:00:53.040Z,80.00
2017-08-01T17:03:20.459Z,80.30
2017-08-01T17:05:47.884Z,80.20
2017-08-01T17:08:15.311Z,80.40
2017-08-01T17:10:43.503Z,81.10
2017-08-01T17:13:10.932Z,80.30
2017-08-01T17:15:38.395Z,80.00
2017-08-01T17:18:05.856Z,80.20
2017-08-01T17:20:34.046Z,81.20
2017-08-01T17:23:02.244Z,81.50
2017-08-01T17:25:29.675Z,81.40
2017-08-01T17:27:57.100Z,81.40
2017-08-01T17:30:24.532Z,81.20
2017-08-01T17:32:51.984Z,81.50
2017-08-01T17:35:19.408Z,81.60
2017-08-01T17:37:46.948Z,81.60
2017-08-01T17:40:14.379Z,79.90
2017-08-01T17:42:41.847Z,80.70
2017-08-01T17:45:09.283Z,80.00
2017-08-01T17:47:36.773Z,81.60
2017-08-01T17:50:04.199Z,81.70
2017-08-01T17:52:31.689Z,81.30
2017-08-01T17:54:59.116Z,79.60
2017-08-01T17:57:26.535Z,80.00
2017-08-01T17:59:54.984Z,80.20
2017-08-01T18:02:22.443Z,80.50
2017-08-01T18:04:53.800Z,79.20
2017-08-01T18:07:22.705Z,77.20
2017-08-01T18:09:50.883Z,79.00
2017-08-01T18:12:18.307Z,79.00
2017-08-01T18:14:46.528Z,79.70
2017-08-01T18:17:13.935Z,79.60
2017-08-01T18:19:42.135Z,80.60
2017-08-01T18:22:09.559Z,80.20
2017-08-01T18:24:36.991Z,80.50
2017-08-01T18:27:04.416Z,80.20
2017-08-01T18:29:32.855Z,80.10
2017-08-01T18:32:00.276Z,80.30
2017-08-01T18:34:27.725Z,78.50
2017-08-01T18:36:55.146Z,79.40
2017-08-01T18:39:22.599Z,79.50
2017-08-01T18:41:50.798Z,80.70
2017-08-01T18:44:18.207Z,80.00
2017-08-01T18:46:45.652Z,80.40
2017-08-01T18:49:13.059Z,81.60
2017-08-01T18:51:40.491Z,81.50
2017-08-01T18:54:08.683Z,79.80
2017-08-01T18:56:36.147Z,79.70
2017-08-01T18:59:03.567Z,80.60
2017-08-01T19:01:30.995Z,81.20
2017-08-01T19:03:58.415Z,82.20
2017-08-01T19:06:25.863Z,82.00
2017-08-01T19:08:53.284Z,81.50
2017-08-01T19:11:20.716Z,80.90
2017-08-01T19:13:48.145Z,81.40
2017-08-01T19:16:15.573Z,80.80
2017-08-01T19:18:43.760Z,78.30
2017-08-01T19:21:11.956Z,79.60
2017-08-01T19:23:39.379Z,79.60
2017-08-01T19:26:07.579Z,80.90
2017-08-01T19:28:34.998Z,81.00
2017-08-01T19:31:02.427Z,82.10
2017-08-01T19:33:29.872Z,82.50
2017-08-01T19:35:57.327Z,81.80
2017-08-01T19:38:24.751Z,83.50
2017-08-01T19:40:52.183Z,83.70
2017-08-01T19:43:19.619Z,82.90
2017-08-01T19:45:47.052Z,84.10
2017-08-01T19:48:15.534Z,85.00
2017-08-01T19:50:42.932Z,85.20
2017-08-01T19:53:10.371Z,84.90
2017-08-01T19:55:37.792Z,85.30
2017-08-01T19:58:05.219Z,85.60
2017-08-01T20:00:33.444Z,85.30
2017-08-01T20:03:00.939Z,85.30
2017-08-01T20:05:29.127Z,85.60
2017-08-01T20:07:56.555Z,85.50
2017-08-01T20:10:23.981Z,85.50
2017-08-01T20:12:51.411Z,85.50
2017-08-01T20:15:18.822Z,85.70
2017-08-01T20:17:46.250Z,86.20
2017-08-01T20:20:13.671Z,86.40
2017-08-01T20:22:41.102Z,86.50
2017-08-01T20:25:08.526Z,86.90
2017-08-01T20:27:35.951Z,87.00
2017-08-01T20:30:03.480Z,86.90
2017-08-01T20:32:31.676Z,87.50
2017-08-01T20:34:59.204Z,87.00
2017-08-01T20:37:26.636Z,87.40
2017-08-01T20:39:54.072Z,86.80
2017-08-01T20:42:21.487Z,86.70
2017-08-01T20:44:49.691Z,86.70
2017-08-01T20:47:17.114Z,86.60
2017-08-01T20:49:45.320Z,88.00
2017-08-01T20:52:12.846Z,87.30
2017-08-01T20:54:40.267Z,87.20
2017-08-01T20:57:07.687Z,87.20
2017-08-01T20:59:35.111Z,87.30
2017-08-01T21:02:02.551Z,87.30
2017-08-01T21:04:30.028Z,87.40
2017-08-01T21:06:58.215Z,88.30
2017-08-01T21:09:26.427Z,87.70
2017-08-01T21:11:53.851Z,87.60
2017-08-01T21:14:22.049Z,87.60
2017-08-01T21:16:49.563Z,87.60
2017-08-01T21:19:16.995Z,88.00
2017-08-01T21:21:44.424Z,88.30
2017-08-01T21:24:11.843Z,88.50
2017-08-01T21:26:40.035Z,88.40
2017-08-01T21:29:07.459Z,88.40
2017-08-01T21:31:34.880Z,88.50
2017-08-01T21:34:02.307Z,88.60
2017-08-01T21:36:29.731Z,87.80
2017-08-01T21:38:57.164Z,87.50
2017-08-01T21:41:24.594Z,87.60
2017-08-01T21:43:52.007Z,87.90
2017-08-01T21:46:20.208Z,87.90
2017-08-01T21:48:47.631Z,87.90
2017-08-01T21:51:15.067Z,87.80
2017-08-01T21:53:42.499Z,87.60
2017-08-01T21:56:09.923Z,87.70
2017-08-01T21:58:37.355Z,88.20
2017-08-01T22:01:04.791Z,87.70
2017-08-01T22:03:32.232Z,87.30
2017-08-01T22:05:59.660Z,86.90
2017-08-01T22:08:27.084Z,86.90
2017-08-01T22:10:54.516Z,87.50
2017-08-01T22:13:21.936Z,88.30
2017-08-01T22:15:49.367Z,88.30
2017-08-01T22:18:17.559Z,86.90
2017-08-01T22:20:44.992Z,86.80
2017-08-01T22:23:13.260Z,86.40
2017-08-01T22:25:40.683Z,86.30
2017-08-01T22:28:08.171Z,86.20
2017-08-01T22:30:35.599Z,86.40
2017-08-01T22:33:03.028Z,86.80
2017-08-01T22:35:30.451Z,87.50
2017-08-01T22:37:58.639Z,86.50
2017-08-01T22:40:26.075Z,86.50
2017-08-01T22:42:53.496Z,86.10
2017-08-01T22:45:20.920Z,85.90
2017-08-01T22:47:48.360Z,86.20
2017-08-01T22:50:16.547Z,85.60
2017-08-01T22:52:43.975Z,85.60
2017-08-01T22:55:11.396Z,85.50
2017-08-01T22:57:38.836Z,85.50
2017-08-01T23:00:06.264Z,85.60
2017-08-01T23:02:33.699Z,85.20
2017-08-01T23:05:01.895Z,85.50
2017-08-01T23:07:29.325Z,85.30
2017-08-01T23:09:56.744Z,85.50
2017-08-01T23:12:24.175Z,87.20
2017-08-01T23:14:51.599Z,86.90
2017-08-01T23:17:19.806Z,86.40
2017-08-01T23:19:47.226Z,86.30
2017-08-01T23:22:14.660Z,86.50
2017-08-01T23:24:42.079Z,86.10
2017-08-01T23:27:09.512Z,87.30
2017-08-01T23:29:37.703Z,86.80
2017-08-01T23:32:05.131Z,86.70
2017-08-01T23:34:33.323Z,86.80
2017-08-01T23:37:00.751Z,86.80
2017-08-01T23:39:28.181Z,86.90
2017-08-01T23:41:55.615Z,86.60
2017-08-01T23:44:23.035Z,86.30
2017-08-01T23:46:50.483Z,86.60
2017-08-01T23:49:17.903Z,86.50
2017-08-01T23:51:45.327Z,86.40
2017-08-01T23:54:12.764Z,86.50
2017-08-01T23:56:40.944Z,85.80
2017-08-01T23:59:08.375Z,85.80
